KNRB

Mayport NS (Adm David L McDonald Field) Airport

Mayport, Florida, USA
METAR KNRB 170052Z AUTO 30008KT 10SM CLR 12/08 A3013 RMK AO2 SLP200 T01220083 $
Observed Flight Rules
Dec-17 @ 00:52 UTC (10 minutes ago) Visual Flight Rules
Wind Visibility Clouds
300° at 8 knots 10 miles
  • Clear skies
Temperatures Readings
Current 12°C / 54°F
Dewpoint 8°C / 46°F
Humidity 77%
Altimeter 30.13" Hg
Pressure 1020 hPa
Elevation 5
METAR KNRB 170052Z AUTO 30008KT 10SM CLR 12/08 A3013 RMK AO2 SLP200 T01220083 $
Observed Flight Rules
Dec-17 @ 00:52 UTC
(10 minutes ago)
VFR
Wind Visibility
300° at 8 knots 10 miles
Clouds
  • Clear skies
Temperature Dewpoint
12°C / 54°F 8°C / 46°F
Humidity Altimeter Pressure
77% 30.13" Hg 1020 hPa